createdAt,value
2018-07-19T00:02:10.797Z,5.78
2018-07-19T00:04:41.094Z,6.20
2018-07-19T00:07:11.426Z,5.58
2018-07-19T00:09:41.739Z,5.67
2018-07-19T00:12:12.100Z,5.83
2018-07-19T00:14:42.882Z,5.50
2018-07-19T00:17:13.197Z,5.47
2018-07-19T00:19:43.486Z,5.20
2018-07-19T00:22:13.813Z,5.62
2018-07-19T00:24:44.142Z,5.55
2018-07-19T00:27:14.477Z,5.78
2018-07-19T00:29:44.779Z,5.22
2018-07-19T00:32:15.109Z,5.30
2018-07-19T00:34:45.425Z,5.12
2018-07-19T00:37:16.137Z,5.87
2018-07-19T00:39:46.459Z,5.25
2018-07-19T00:42:16.813Z,5.97
2018-07-19T00:44:47.474Z,5.58
2018-07-19T00:47:17.801Z,5.70
2018-07-19T00:49:48.129Z,5.70
2018-07-19T00:52:18.454Z,5.70
2018-07-19T00:54:48.782Z,5.47
2018-07-19T00:57:19.090Z,5.83
2018-07-19T00:59:49.397Z,5.65
2018-07-19T01:02:20.058Z,5.25
2018-07-19T01:04:50.349Z,5.75
2018-07-19T01:07:20.681Z,5.78
2018-07-19T01:09:50.999Z,5.47
2018-07-19T01:12:21.757Z,6.45
2018-07-19T01:14:52.037Z,5.67
2018-07-19T01:17:22.391Z,5.47
2018-07-19T01:19:52.905Z,5.15
2018-07-19T01:22:23.252Z,6.10
2018-07-19T01:24:53.921Z,6.10
2018-07-19T01:27:24.249Z,5.72
2018-07-19T01:29:54.554Z,5.47
2018-07-19T01:32:25.225Z,5.60
2018-07-19T01:34:55.879Z,5.22
2018-07-19T01:37:26.187Z,5.50
2018-07-19T01:39:56.473Z,6.10
2018-07-19T01:42:38.893Z,5.62
2018-07-19T01:45:10.605Z,5.50
2018-07-19T01:47:41.269Z,5.53
2018-07-19T01:50:12.281Z,5.53
2018-07-19T01:52:42.598Z,6.00
2018-07-19T01:55:12.881Z,5.92
2018-07-19T01:57:43.201Z,6.08
2018-07-19T02:00:13.596Z,5.87
2018-07-19T02:02:43.826Z,5.08
2018-07-19T02:05:14.127Z,5.70
2018-07-19T02:07:44.793Z,5.65
2018-07-19T02:10:15.097Z,5.72
2018-07-19T02:12:45.899Z,6.03
2018-07-19T02:15:16.198Z,6.58
2018-07-19T02:17:46.568Z,5.62
2018-07-19T02:20:16.849Z,5.80
2018-07-19T02:22:47.224Z,5.83
2018-07-19T02:25:17.537Z,5.40
2018-07-19T02:27:47.857Z,6.08
2018-07-19T02:30:18.161Z,6.28
2018-07-19T02:32:48.482Z,5.80
2018-07-19T02:35:19.153Z,5.60
2018-07-19T02:37:49.441Z,5.95
2018-07-19T02:40:19.774Z,5.90
2018-07-19T02:42:50.065Z,5.78
2018-07-19T02:45:20.377Z,5.12
2018-07-19T02:47:50.662Z,6.03
2018-07-19T02:50:20.977Z,5.70
2018-07-19T02:52:51.265Z,5.67
2018-07-19T02:55:21.558Z,5.80
2018-07-19T02:57:51.869Z,5.40
2018-07-19T03:00:22.161Z,5.58
2018-07-19T03:02:52.274Z,5.72
2018-07-19T03:05:22.607Z,5.72
2018-07-19T03:07:52.899Z,6.33
2018-07-19T03:10:23.212Z,5.42
2018-07-19T03:12:53.886Z,6.28
2018-07-19T03:15:24.213Z,5.53
2018-07-19T03:17:54.513Z,5.80
2018-07-19T03:20:24.821Z,6.05
2018-07-19T03:22:55.145Z,6.12
2018-07-19T03:25:25.422Z,5.97
2018-07-19T03:27:55.733Z,5.87
2018-07-19T03:30:26.034Z,6.42
2018-07-19T03:32:56.367Z,6.30
2018-07-19T03:35:26.645Z,5.30
2018-07-19T03:37:56.966Z,6.12
2018-07-19T03:40:27.255Z,6.08
2018-07-19T03:42:57.592Z,6.30
2018-07-19T03:45:28.233Z,6.00
2018-07-19T03:47:58.559Z,5.60
2018-07-19T03:50:28.922Z,5.90
2018-07-19T03:52:59.223Z,5.42
2018-07-19T03:55:29.909Z,6.10
2018-07-19T03:58:00.213Z,6.12
2018-07-19T04:00:30.532Z,5.95
2018-07-19T04:03:00.866Z,5.60
2018-07-19T04:05:31.191Z,6.03
2018-07-19T04:08:01.498Z,5.92
2018-07-19T04:10:31.806Z,5.58
2018-07-19T04:13:02.197Z,6.12
2018-07-19T04:15:32.486Z,5.60
2018-07-19T04:18:02.843Z,5.80
2018-07-19T04:20:33.557Z,5.80
2018-07-19T04:23:03.886Z,6.53
2018-07-19T04:25:34.175Z,6.20
2018-07-19T04:28:04.493Z,6.10
2018-07-19T04:30:34.810Z,6.30
2018-07-19T04:33:05.194Z,6.12
2018-07-19T04:35:35.489Z,5.67
2018-07-19T04:38:06.354Z,5.78
2018-07-19T04:40:36.650Z,6.05
2018-07-19T04:43:06.969Z,6.05
2018-07-19T04:45:37.289Z,6.22
2018-07-19T04:48:07.618Z,5.22
2018-07-19T04:50:38.281Z,6.05
2018-07-19T04:53:08.650Z,5.62
2018-07-19T04:55:38.937Z,5.65
2018-07-19T04:58:09.234Z,5.45
2018-07-19T05:00:39.902Z,6.25
2018-07-19T05:03:10.537Z,5.35
2018-07-19T05:05:40.658Z,5.58
2018-07-19T05:08:10.952Z,5.60
2018-07-19T05:10:41.273Z,5.72
2018-07-19T05:13:11.601Z,6.03
2018-07-19T05:15:41.933Z,5.90
2018-07-19T05:18:12.225Z,6.10
2018-07-19T05:20:42.541Z,5.55
2018-07-19T05:23:12.945Z,6.25
2018-07-19T05:25:43.180Z,5.53
2018-07-19T05:28:13.473Z,5.60
2018-07-19T05:30:44.174Z,5.53
2018-07-19T05:33:14.526Z,5.95
2018-07-19T05:35:45.173Z,5.70
2018-07-19T05:38:15.566Z,6.20
2018-07-19T05:40:45.830Z,6.45
2018-07-19T05:43:16.181Z,5.85
2018-07-19T05:45:46.458Z,5.20
2018-07-19T05:48:16.776Z,5.53
2018-07-19T05:50:47.061Z,6.03
2018-07-19T05:53:17.546Z,6.20
2018-07-19T05:55:47.845Z,6.03
2018-07-19T05:58:18.256Z,5.62
2018-07-19T06:00:48.700Z,5.70
2018-07-19T06:03:19.261Z,6.20
2018-07-19T06:05:49.577Z,5.37
2018-07-19T06:08:19.957Z,4.95
2018-07-19T06:10:50.257Z,5.50
2018-07-19T06:13:20.620Z,5.22
2018-07-19T06:15:50.935Z,5.42
2018-07-19T06:18:21.225Z,6.00
2018-07-19T06:20:51.553Z,5.50
2018-07-19T06:23:21.938Z,6.00
2018-07-19T06:25:52.249Z,5.42
2018-07-19T06:28:22.579Z,5.40
2018-07-19T06:30:52.890Z,4.83
2018-07-19T06:33:23.206Z,5.47
2018-07-19T06:35:53.542Z,5.22
2018-07-19T06:38:23.886Z,5.37
2018-07-19T06:40:54.238Z,6.03
2018-07-19T06:43:24.565Z,6.22
2018-07-19T06:45:54.909Z,5.83
2018-07-19T06:48:25.570Z,5.20
2018-07-19T06:50:55.857Z,6.22
2018-07-19T06:53:26.181Z,5.97
2018-07-19T06:55:56.481Z,6.37
2018-07-19T06:58:26.803Z,5.45
2018-07-19T07:00:57.101Z,5.90
2018-07-19T07:03:27.519Z,5.80
2018-07-19T07:05:57.790Z,5.70
2018-07-19T07:08:28.121Z,5.45
2018-07-19T07:10:58.426Z,6.40
2018-07-19T07:13:28.789Z,5.70
2018-07-19T07:15:59.097Z,6.37
2018-07-19T07:18:29.437Z,5.92
2018-07-19T07:20:59.766Z,6.03
2018-07-19T07:23:30.086Z,6.20
2018-07-19T07:26:00.422Z,5.70
2018-07-19T07:28:30.721Z,5.83
2018-07-19T07:31:01.074Z,6.17
2018-07-19T07:33:31.374Z,6.40
2018-07-19T07:36:02.004Z,5.80
2018-07-19T07:38:32.442Z,6.08
2018-07-19T07:41:03.113Z,5.65
2018-07-19T07:43:33.418Z,6.10
2018-07-19T07:46:03.739Z,5.62
2018-07-19T07:48:34.046Z,5.35
2018-07-19T07:51:04.360Z,5.28
2018-07-19T07:53:35.034Z,5.47
2018-07-19T07:56:05.363Z,5.00
2018-07-19T07:58:35.702Z,4.45
2018-07-19T08:01:06.035Z,4.70
2018-07-19T08:03:36.627Z,4.83
2018-07-19T08:06:07.578Z,4.80
2018-07-19T08:08:37.933Z,4.37
2018-07-19T08:11:08.590Z,4.10
2018-07-19T08:13:38.933Z,4.35
2018-07-19T08:16:09.230Z,4.05
2018-07-19T08:18:39.276Z,3.43
2018-07-19T08:21:09.585Z,3.50
2018-07-19T08:23:39.911Z,3.80
2018-07-19T08:26:10.222Z,3.87
2018-07-19T08:28:40.253Z,3.57
2018-07-19T08:31:10.261Z,3.60
2018-07-19T08:33:40.680Z,3.70
2018-07-19T08:36:10.741Z,3.50
2018-07-19T08:38:40.774Z,3.53
2018-07-19T08:41:10.801Z,3.33
2018-07-19T08:43:40.835Z,3.20
2018-07-19T08:46:11.266Z,3.10
2018-07-19T08:48:41.453Z,3.07
2018-07-19T08:51:12.229Z,3.00
2018-07-19T08:53:42.245Z,3.07
2018-07-19T08:56:12.270Z,3.23
2018-07-19T08:58:42.650Z,3.43
2018-07-19T09:01:12.681Z,3.10
2018-07-19T09:03:42.718Z,3.30
2018-07-19T09:06:12.722Z,3.33
2018-07-19T09:08:42.779Z,3.20
2018-07-19T09:11:12.774Z,3.23
2018-07-19T09:13:42.845Z,3.30
2018-07-19T09:16:12.846Z,2.80
2018-07-19T09:21:19.555Z,3.50
2018-07-19T09:23:49.544Z,3.60
2018-07-19T09:26:19.934Z,3.70
2018-07-19T09:28:49.830Z,3.50
2018-07-19T09:31:19.793Z,3.20
2018-07-19T09:33:49.791Z,3.40
2018-07-19T09:36:19.830Z,3.20
2018-07-19T09:38:49.829Z,3.77
2018-07-19T09:41:19.847Z,3.37
2018-07-19T09:43:49.846Z,3.50
2018-07-19T09:46:20.225Z,3.40
2018-07-19T09:48:50.329Z,4.03
2018-07-19T09:51:20.313Z,3.10
2018-07-19T09:53:50.333Z,3.20
2018-07-19T09:56:21.044Z,3.40
2018-07-19T09:58:51.087Z,3.57
2018-07-19T10:01:21.754Z,4.30
2018-07-19T10:03:52.789Z,3.53
2018-07-19T10:06:23.501Z,3.47
2018-07-19T10:08:53.533Z,4.93
2018-07-19T10:11:23.564Z,3.80
2018-07-19T10:13:53.598Z,4.30
2018-07-19T10:16:23.585Z,3.57
2018-07-19T10:18:53.614Z,3.97
2018-07-19T10:21:23.653Z,3.40
2018-07-19T10:23:53.689Z,4.33
2018-07-19T10:26:23.714Z,4.03
2018-07-19T10:28:53.877Z,5.10
2018-07-19T10:31:23.913Z,4.70
2018-07-19T10:33:53.953Z,4.77
2018-07-19T10:36:24.042Z,4.80
2018-07-19T10:38:54.073Z,5.20
2018-07-19T10:41:24.222Z,5.13
2018-07-19T10:43:54.229Z,4.80
2018-07-19T10:46:24.282Z,4.87
2018-07-19T10:48:54.281Z,5.00
2018-07-19T10:51:24.317Z,4.63
2018-07-19T10:53:54.141Z,5.87
2018-07-19T10:56:23.953Z,4.40
2018-07-19T10:58:53.768Z,5.20
2018-07-19T11:01:23.578Z,5.33
2018-07-19T11:03:53.398Z,4.50
2018-07-19T11:06:23.406Z,5.17
2018-07-19T11:08:53.550Z,4.53
2018-07-19T11:11:23.391Z,6.00
2018-07-19T11:13:53.185Z,4.97
2018-07-19T11:16:23.024Z,5.00
2018-07-19T11:18:53.026Z,5.03
2018-07-19T11:21:22.853Z,4.87
2018-07-19T11:23:53.185Z,5.97
2018-07-19T11:26:23.018Z,4.97
2018-07-19T11:28:52.845Z,5.30
2018-07-19T11:31:22.683Z,4.73
2018-07-19T11:33:52.521Z,5.00
2018-07-19T11:36:22.693Z,4.43
2018-07-19T11:38:52.769Z,5.00
2018-07-19T11:41:22.674Z,4.33
2018-07-19T11:43:52.488Z,4.67
2018-07-19T11:46:22.310Z,4.73
2018-07-19T11:48:52.142Z,4.10
2018-07-19T11:51:22.309Z,5.03
2018-07-19T11:53:52.225Z,4.57
2018-07-19T11:56:22.061Z,4.30
2018-07-19T11:58:51.934Z,4.50
2018-07-19T12:01:21.758Z,4.57
2018-07-19T12:03:51.610Z,4.60
2018-07-19T12:06:21.437Z,4.57
2018-07-19T12:08:51.473Z,5.37
2018-07-19T12:11:21.346Z,4.07
2018-07-19T12:13:51.460Z,4.70
2018-07-19T12:16:21.646Z,4.70
2018-07-19T12:18:51.453Z,4.30
2018-07-19T12:21:21.311Z,4.53
2018-07-19T12:23:51.170Z,4.93
2018-07-19T12:26:20.994Z,4.37
2018-07-19T12:28:50.781Z,4.73
2018-07-19T12:31:20.605Z,4.40
2018-07-19T12:33:50.603Z,4.13
2018-07-19T12:36:20.466Z,4.30
2018-07-19T12:38:50.277Z,4.60
2018-07-19T12:41:20.130Z,4.40
2018-07-19T12:43:49.973Z,4.40
2018-07-19T12:46:19.804Z,4.73
2018-07-19T12:48:49.666Z,4.10
2018-07-19T12:51:19.665Z,4.67
2018-07-19T12:53:49.480Z,4.30
2018-07-19T12:56:19.650Z,4.33
2018-07-19T12:58:49.859Z,4.43
2018-07-19T13:01:19.649Z,4.50
2018-07-19T13:03:49.512Z,4.30
2018-07-19T13:06:19.338Z,4.40
2018-07-19T13:08:49.158Z,4.50
2018-07-19T13:11:19.037Z,4.30
2018-07-19T13:13:48.901Z,4.07
2018-07-19T13:16:19.610Z,3.60
2018-07-19T13:18:49.410Z,4.70
2018-07-19T13:21:19.433Z,3.47
2018-07-19T13:23:51.161Z,4.00
2018-07-19T13:26:21.953Z,4.30
2018-07-19T13:28:51.745Z,4.10
2018-07-19T13:31:22.102Z,4.27
2018-07-19T13:33:52.158Z,4.40
2018-07-19T13:36:22.385Z,4.20
2018-07-19T13:38:52.177Z,4.30
2018-07-19T13:41:22.034Z,4.13
2018-07-19T13:43:51.885Z,3.80
2018-07-19T13:46:22.070Z,4.33
2018-07-19T13:48:51.890Z,4.10
2018-07-19T13:51:21.709Z,4.17
2018-07-19T13:54:20.110Z,4.17
2018-07-19T13:56:49.991Z,4.27
2018-07-19T13:59:20.169Z,4.53
2018-07-19T14:01:49.971Z,4.30
2018-07-19T14:04:19.805Z,3.53
2018-07-19T14:06:49.609Z,4.33
2018-07-19T14:09:19.446Z,5.00
2018-07-19T14:11:49.442Z,4.50
2018-07-19T14:14:19.265Z,4.27
2018-07-19T14:16:49.081Z,4.30
2018-07-19T14:19:19.276Z,4.23
2018-07-19T14:21:49.249Z,4.33
2018-07-19T14:24:19.097Z,4.30
2018-07-19T14:26:48.935Z,4.43
2018-07-19T14:29:19.070Z,4.70
2018-07-19T14:31:48.898Z,4.27
2018-07-19T14:34:18.713Z,4.23
2018-07-19T14:36:48.550Z,4.30
2018-07-19T14:39:18.366Z,4.30
2018-07-19T14:41:48.526Z,4.50
2018-07-19T14:44:18.367Z,4.37
2018-07-19T14:46:48.161Z,4.23
2018-07-19T14:49:17.990Z,4.23
2018-07-19T14:51:47.785Z,4.40
2018-07-19T14:54:17.626Z,4.27
2018-07-19T14:56:47.413Z,4.00
2018-07-19T14:59:17.249Z,4.27
2018-07-19T15:01:47.546Z,4.10
2018-07-19T15:04:17.376Z,4.60
2018-07-19T15:06:47.522Z,4.93
2018-07-19T15:09:17.350Z,4.60
2018-07-19T15:11:47.149Z,4.30
2018-07-19T15:14:17.019Z,4.80
2018-07-19T15:16:46.837Z,4.50
2018-07-19T15:19:17.042Z,4.43
2018-07-19T15:21:46.854Z,4.07
2018-07-19T15:24:16.682Z,4.87
2018-07-19T15:26:46.509Z,4.00
2018-07-19T15:29:16.337Z,4.27
2018-07-19T15:31:46.369Z,4.13
2018-07-19T15:34:16.433Z,4.20
2018-07-19T15:36:46.415Z,4.73
2018-07-19T15:39:16.209Z,4.47
2018-07-19T15:41:46.086Z,4.50
2018-07-19T15:44:15.881Z,4.73
2018-07-19T15:46:45.701Z,4.50
2018-07-19T15:49:15.726Z,4.50
2018-07-19T15:51:45.984Z,4.00
2018-07-19T15:54:15.945Z,4.07
2018-07-19T15:56:45.959Z,4.27
2018-07-19T15:59:15.753Z,3.80
2018-07-19T16:01:45.569Z,4.60
2018-07-19T16:04:15.414Z,4.40
2018-07-19T16:06:45.234Z,4.13
2018-07-19T16:09:15.269Z,4.50
2018-07-19T16:11:45.422Z,4.00
2018-07-19T16:14:15.257Z,4.37
2018-07-19T16:16:45.058Z,3.90
2018-07-19T16:19:14.891Z,4.20
2018-07-19T16:21:44.686Z,4.30
2018-07-19T16:24:14.477Z,4.00
2018-07-19T16:26:44.306Z,4.07
2018-07-19T16:29:14.097Z,3.47
2018-07-19T16:31:43.926Z,3.80
2018-07-19T16:34:13.718Z,4.10
2018-07-19T16:36:43.549Z,4.00
2018-07-19T16:39:13.362Z,4.70
2018-07-19T16:41:43.383Z,3.63
2018-07-19T16:44:13.390Z,4.10
2018-07-19T16:46:43.253Z,4.20
2018-07-19T16:49:13.050Z,4.20
2018-07-19T16:51:42.869Z,4.27
2018-07-19T16:54:12.705Z,4.27
2018-07-19T16:56:42.574Z,4.00
2018-07-19T16:59:12.397Z,5.13
2018-07-19T17:01:42.234Z,4.27
2018-07-19T17:04:12.063Z,4.90
2018-07-19T17:06:41.890Z,5.27
2018-07-19T17:09:11.886Z,5.17
2018-07-19T17:11:41.887Z,4.80
2018-07-19T17:14:12.066Z,4.20
2018-07-19T17:16:41.870Z,3.90
2018-07-19T17:22:16.630Z,5.30
2018-07-19T17:24:46.533Z,7.00
2018-07-19T17:27:16.338Z,5.67
2018-07-19T17:29:46.153Z,4.47
2018-07-19T17:32:15.970Z,4.30
2018-07-19T17:34:46.150Z,4.20
2018-07-19T17:37:15.934Z,4.57
2018-07-19T17:39:45.861Z,4.30
2018-07-19T17:42:15.702Z,4.93
2018-07-19T17:44:45.489Z,4.10
2018-07-19T17:47:15.309Z,5.50
2018-07-19T17:49:45.150Z,4.47
2018-07-19T17:52:15.329Z,6.03
2018-07-19T17:54:45.125Z,4.70
2018-07-19T17:57:15.161Z,4.40
2018-07-19T17:59:45.033Z,4.80
2018-07-19T18:02:15.026Z,4.90
2018-07-19T18:04:44.841Z,4.50
2018-07-19T18:07:14.667Z,4.67
2018-07-19T18:09:44.490Z,3.90
2018-07-19T18:12:14.650Z,4.37
2018-07-19T18:14:45.322Z,4.30
2018-07-19T18:17:15.694Z,3.97
2018-07-19T18:19:47.138Z,3.80
2018-07-19T18:22:16.893Z,4.13
2018-07-19T18:24:46.882Z,4.17
2018-07-19T18:27:17.135Z,3.93
2018-07-19T18:29:46.986Z,4.00
2018-07-19T18:32:17.509Z,3.73
2018-07-19T18:34:48.387Z,3.93
2018-07-19T18:37:18.665Z,4.10
2018-07-19T18:39:48.849Z,3.70
2018-07-19T18:42:18.663Z,4.40
2018-07-19T18:44:49.203Z,4.03
2018-07-19T18:47:19.879Z,4.10
2018-07-19T18:49:49.670Z,3.97
2018-07-19T18:52:20.509Z,3.77
2018-07-19T18:54:50.338Z,3.97
2018-07-19T18:57:20.161Z,3.53
2018-07-19T18:59:50.018Z,3.93
2018-07-19T19:02:19.872Z,3.70
2018-07-19T19:04:49.738Z,4.20
2018-07-19T19:07:20.201Z,5.30
2018-07-19T19:09:50.051Z,6.63
2018-07-19T19:12:20.326Z,7.33
2018-07-19T19:14:50.253Z,5.23
2018-07-19T19:17:20.114Z,4.83
2018-07-19T19:19:49.930Z,4.73
2018-07-19T19:22:19.809Z,4.90
2018-07-19T19:24:49.597Z,6.00
2018-07-19T19:27:19.537Z,8.93
2018-07-19T19:29:49.713Z,5.60
2018-07-19T19:32:19.595Z,4.87
2018-07-19T19:34:49.393Z,7.80
2018-07-19T19:37:19.230Z,6.47
2018-07-19T19:39:49.106Z,5.63
2018-07-19T19:42:19.024Z,5.10
2018-07-19T19:44:48.846Z,4.60
2018-07-19T19:47:18.686Z,5.10
2018-07-19T19:49:48.583Z,5.53
2018-07-19T19:52:18.365Z,5.17
2018-07-19T19:54:48.228Z,4.23
2018-07-19T19:57:18.115Z,4.80
2018-07-19T19:59:47.965Z,4.37
2018-07-19T20:02:18.109Z,4.20
2018-07-19T20:04:47.945Z,4.23
2018-07-19T20:07:17.826Z,4.60
2018-07-19T20:09:47.701Z,4.20
2018-07-19T20:12:17.635Z,4.37
2018-07-19T20:14:47.929Z,4.33
2018-07-19T20:17:17.798Z,4.47
2018-07-19T20:19:47.618Z,4.70
2018-07-19T20:22:17.902Z,4.60
2018-07-19T20:24:47.781Z,4.77
2018-07-19T20:27:17.606Z,5.03
2018-07-19T20:29:47.451Z,4.90
2018-07-19T20:32:17.273Z,5.13
2018-07-19T20:34:47.074Z,4.93
2018-07-19T20:37:16.946Z,5.07
2018-07-19T20:39:46.797Z,4.60
2018-07-19T20:42:16.619Z,5.13
2018-07-19T20:44:48.677Z,5.23
2018-07-19T20:47:18.473Z,4.70
2018-07-19T20:49:49.423Z,5.00
2018-07-19T20:52:19.230Z,5.20
2018-07-19T20:54:49.076Z,5.10
2018-07-19T20:57:19.473Z,5.33
2018-07-19T20:59:49.323Z,4.87
2018-07-19T21:02:19.357Z,5.37
2018-07-19T21:04:49.161Z,5.50
2018-07-19T21:07:19.080Z,5.00
2018-07-19T21:09:48.887Z,4.70
2018-07-19T21:12:18.730Z,5.47
2018-07-19T21:14:49.598Z,5.20
2018-07-19T21:17:19.402Z,4.80
2018-07-19T21:19:49.238Z,5.17
2018-07-19T21:22:19.033Z,5.47
2018-07-19T21:24:48.866Z,5.20
2018-07-19T21:27:18.701Z,5.40
2018-07-19T21:29:48.733Z,5.50
2018-07-19T21:32:18.569Z,5.37
2018-07-19T21:34:48.430Z,5.80
2018-07-19T21:37:18.510Z,5.10
2018-07-19T21:39:48.749Z,5.72
2018-07-19T21:42:19.418Z,5.17
2018-07-19T21:44:49.594Z,5.75
2018-07-19T21:47:20.409Z,6.15
2018-07-19T21:49:53.098Z,5.80
2018-07-19T21:52:25.845Z,5.80
2018-07-19T21:55:02.969Z,5.57
2018-07-19T21:57:35.815Z,6.15
2018-07-19T22:00:08.833Z,6.00
2018-07-19T22:02:43.874Z,6.10
2018-07-19T22:08:22.859Z,5.92
2018-07-19T22:10:56.076Z,5.80
2018-07-19T22:13:28.289Z,5.67
2018-07-19T22:16:00.310Z,6.25
2018-07-19T22:18:32.709Z,6.25
2018-07-19T22:21:03.078Z,6.50
2018-07-19T22:23:33.920Z,6.20
2018-07-19T22:26:04.365Z,6.15
2018-07-19T22:28:34.897Z,5.97
2018-07-19T22:31:05.203Z,5.87
2018-07-19T22:33:36.174Z,6.30
2018-07-19T22:36:06.320Z,6.22
2018-07-19T22:38:36.523Z,5.33
2018-07-19T22:41:07.477Z,6.30
2018-07-19T22:43:37.721Z,6.40
2018-07-19T22:46:07.922Z,6.12
2018-07-19T22:48:38.218Z,5.97
2018-07-19T22:51:08.788Z,5.83
2018-07-19T22:53:39.030Z,5.97
2018-07-19T22:56:09.230Z,6.05
2018-07-19T22:58:40.035Z,6.00
2018-07-19T23:01:10.208Z,6.00
2018-07-19T23:03:40.366Z,6.75
2018-07-19T23:06:10.562Z,6.10
2018-07-19T23:08:40.708Z,6.12
2018-07-19T23:11:10.871Z,6.42
2018-07-19T23:13:41.015Z,6.40
2018-07-19T23:16:11.366Z,6.12
2018-07-19T23:18:41.542Z,6.45
2018-07-19T23:21:11.742Z,6.95
2018-07-19T23:23:42.210Z,7.12
2018-07-19T23:26:12.346Z,6.75
2018-07-19T23:28:42.506Z,7.03
2018-07-19T23:31:12.666Z,6.53
2018-07-19T23:33:42.826Z,6.85
2018-07-19T23:36:16.467Z,7.10
2018-07-19T23:38:54.470Z,6.70
2018-07-19T23:41:29.002Z,7.22
2018-07-19T23:44:02.998Z,6.45
2018-07-19T23:46:41.051Z,5.80
2018-07-19T23:49:11.190Z,7.05
2018-07-19T23:51:41.315Z,7.47
2018-07-19T23:54:11.450Z,7.10
2018-07-19T23:56:41.583Z,7.10
2018-07-19T23:59:11.758Z,7.33
